Weather observations for the past three days for
Las Vegas - Henderson Executive Airport
Imperial (Metric)
Date Time (pdt) Wind (mph) Vis. (mi.) Weather Sky Cond. Temperature (ºF) Relative Humidity Wind Chill (°F) Heat Index (°F) Pressure Precipitation (in)
Air Dwpt 6 hour altimeter (in) sea level (mb) 1 hr 3 hr 6 hr
Max. Min.
07 13:56 Vrbl 3 10.00 Fair CLR 89.1 26.1 10% 85 29.96 1013.7
07 12:56 Calm 10.00 Fair CLR 87.1 26.1 11% 84 29.99 1014.7
07 11:56 Calm 10.00 Fair CLR 84.9 21.9 10% 82 30.02 1015.8
07 10:56 NE 7 10.00 Fair CLR 82 19.9 82 59 10% 80 30.05 1016.6
07 09:56 Vrbl 5 10.00 Fair CLR 79 23 12% 78 30.06 1017.0
07 08:56 Calm 10.00 Fair CLR 75.9 25 15% 76 30.07 1017.4
07 07:56 SW 3 10.00 Fair CLR 72 27 19% 30.07 1017.6
07 06:56 S 5 10.00 Fair CLR 64.9 30.9 28% 30.07 1017.7
07 05:56 S 7 10.00 Fair CLR 60.1 30.9 33% 30.05 1017.3
07 04:56 S 7 10.00 Fair CLR 61 30 73 61 31% 30.04 1017.1
07 03:56 SE 6 10.00 Fair CLR 63 33.1 33% 30.04 1017.0
07 02:56 S 8 10.00 Fair CLR 64.9 33.1 31% 30.04 1016.7
07 01:56 S 8 10.00 Fair CLR 66 32 28% 30.04 1016.9
07 00:56 Calm 10.00 Fair CLR 71.1 33.1 25% 30.04 1016.8
06 23:56 S 7 10.00 Fair CLR 69.1 30 23% 30.02 1016.3
06 22:56 S 8 10.00 Fair CLR 73.9 30 84 71.1 20% 30.01 1015.6
06 21:56 S 7 10.00 Fair CLR 73.9 30 20% 30 1015.3
06 20:56 S 5 10.00 Fair CLR 77 30.9 18% 77 29.98 1014.8
06 19:56 Calm 10.00 Fair CLR 82 32 16% 80 29.96 1013.9
06 18:56 SE 3 10.00 Fair CLR 82 32 16% 80 29.95 1013.7
06 17:56 Calm 10.00 Fair CLR 82.9 33.1 17% 80 29.95 1013.8
06 16:56 N 7 10.00 Fair CLR 82.9 34 84 73.9 17% 80 29.95 1013.8
06 15:56 E 6 10.00 Fair CLR 82.9 34 17% 80 29.97 1014.3
06 14:56 E 9 10.00 Fair CLR 82 35.1 18% 80 29.99 1015.1
06 13:56 Vrbl 6 10.00 Fair CLR 79 35.1 20% 78 30.01 1015.9
06 12:56 Vrbl 3 10.00 Fair CLR 77 36 23% 77 30.02 1016.3
06 11:56 Calm 10.00 Fair CLR 77 36 23% 77 30.03 1016.7
06 10:56 W 8 10.00 Fair CLR 75 35.1 75 57 23% 76 30.04 1016.9
06 09:56 Calm 10.00 Fair CLR 72 35.1 26% 30.04 1016.9
06 08:56 S 8 10.00 Fair CLR 69.1 36 30% 30.03 1016.7
06 07:56 SW 10 10.00 Fair CLR 64.9 37.9 37% 30.02 1016.5
06 06:56 SW 10 10.00 Fair CLR 60.1 37 42% 30 1016.1
06 05:56 SW 9 10.00 Fair CLR 57 36 45% 29.98 1015.4
06 04:56 SW 13 10.00 Fair CLR 57.9 36 66 57.9 44% 29.96 1014.8
06 03:56 S 12 10.00 Fair CLR 61 36 39% 29.95 1014.0
06 02:56 S 17 10.00 Fair CLR 62.1 35.1 37% 29.93 1013.4
06 01:56 S 14 10.00 Fair CLR 63 35.1 35% 29.92 1013.1
06 00:56 S 13 10.00 Fair CLR 64 33.1 32% 29.92 1013.3
05 23:56 S 10 10.00 Fair CLR 64 27 25% 29.92 1013.2
05 22:56 SW 10 10.00 Fair CLR 66 28.9 75 66 25% 29.9 1012.5
05 21:56 SW 10 10.00 Fair CLR 66.9 30.9 26% 29.89 1012.1
05 20:56 SW 13 10.00 Fair CLR 68 30.9 25% 29.86 1011.4
05 19:56 SW 14 10.00 Fair CLR 70 30.9 23% 29.83 1010.4
05 18:56 SW 13 G 17 10.00 Fair CLR 72 30.9 22% 29.82 1009.8
05 17:56 SW 9 10.00 Fair CLR 73 30 20% 29.81 1009.7
05 16:56 Vrbl 5 10.00 Fair CLR 73.9 25 75 66.9 16% 29.8 1009.3
05 15:56 Vrbl 6 10.00 Fair CLR 73.9 27 17% 29.81 1009.6
05 14:56 W 8 10.00 Fair CLR 73.9 28.9 19% 29.83 1010.1
05 13:56 Calm 10.00 A Few Clouds FEW090 71.1 28.9 21% 29.85 1010.8
05 12:56 W 7 10.00 Mostly Cloudy BKN080 70 30.9 23% 29.85 1011.1
05 11:56 Vrbl 7 10.00 Fair CLR 68 30.9 25% 29.87 1011.6
05 10:56 Vrbl 3 G 17 10.00 A Few Clouds FEW070 68 33.1 68 54 27% 29.87 1011.6
05 09:56 S 12 10.00 Fair CLR 66 34 30% 29.87 1011.5
05 08:56 SW 16 10.00 Fair CLR 61 35.1 38% 29.87 1011.8
05 07:56 S 10 10.00 Fair CLR 60.1 37 42% 29.87 1011.7
05 06:56 SW 15 10.00 Fair CLR 57 37 47% 29.85 1011.2
05 05:56 S 14 10.00 Fair CLR 55 36 49% 29.84 1010.8
05 04:56 S 12 10.00 Fair CLR 54 36 63 54 51% 29.84 1010.7
05 03:56 S 9 10.00 Fair CLR 55 35.1 47% 29.84 1010.5
05 02:56 S 8 10.00 Fair CLR 55.9 35.1 46% 29.84 1010.7
05 01:56 S 13 10.00 Fair CLR 57.9 36 44% 29.84 1010.6
05 00:56 S 8 10.00 Fair CLR 59 35.1 41% 29.85 1010.9
04 23:56 SW 14 10.00 Fair CLR 60.1 34 38% 29.85 1010.8
04 22:56 SW 12 10.00 Fair CLR 63 33.1 73.9 63 33% 29.84 1010.6
04 21:56 SW 7 10.00 Fair CLR 64.9 32 29% 29.84 1010.5
04 20:56 SW 13 10.00 Fair CLR 66.9 30.9 26% 29.82 1009.7
04 19:56 SW 13 10.00 Fair CLR 69.1 30 23% 29.78 1008.6
04 18:56 SW 15 10.00 Fair CLR 71.1 27 19% 29.78 1008.4
04 17:56 SW 17 G 24 10.00 Fair CLR 73.9 27 17% 29.78 1008.2
04 16:56 W 18 G 22 10.00 Fair CLR 73 26.1 75.9 68 17% 29.78 1008.4
04 15:56 SW 24 G 28 10.00 Fair and Breezy CLR 75.9 21 13% 76 29.79 1008.1
04 14:56 SW 15 G 24 10.00 Fair CLR 75.9 19 12% 75 29.8 1008.7
Date Time (pdt) Wind (mph) Vis. (mi.) Weather Sky Cond. Air Dwpt Max. Min. Relative Humidity Wind Chill (°F) Heat Index (°F) altimeter (in) sea level (mb) 1 hr 3 hr 6 hr
6 hour
Temperature (ºF) Pressure Precipitation (in)